Time;durP1;ratioP1;P1;durP2;ratioP2;P2;SDS_P1;SDS_P2;PMS_P1;PMS_P2;Temp;Humidity;BMP_temperature;BMP_pressure;BME280_temperature;BME280_humidity;BME280_pressure;Samples;Min_cycle;Max_cycle;Signal;HPM_P1;HPM_P2
2023/05/22 00:01:01;;;;;;;18.85;9.73;;;;;;;;;;4851453;29;20056;-63
2023/05/22 00:03:32;;;;;;;22.42;10.93;;;;;;;;;;4912840;29;20052;-63
2023/05/22 00:06:05;;;;;;;;;;;;;;;;;;4866583;29;20529;-63
2023/05/22 00:08:37;;;;;;;18.35;9.48;;;;;;;;;;4912646;29;19930;-62
2023/05/22 00:11:08;;;;;;;20.55;11.23;;;;;;;;;;4893047;29;20060;-63
2023/05/22 00:13:59;;;;;;;21.02;10.43;;;;;;;;;;4860209;29;20058;-63
2023/05/22 00:16:31;;;;;;;16.63;9.90;;;;;;;;;;4869828;29;20057;-62
2023/05/22 00:19:03;;;;;;;18.88;9.80;;;;;;;;;;4894083;29;20044;-62
2023/05/22 00:21:37;;;;;;;18.80;10.02;;;;;;;;;;4893762;29;20174;-62
2023/05/22 00:24:09;;;;;;;21.92;11.75;;;;;;;;;;4893797;29;20057;-62
2023/05/22 00:26:42;;;;;;;17.35;10.30;;;;;;;;;;4893452;29;20092;-65
2023/05/22 00:29:13;;;;;;;19.88;10.55;;;;;;;;;;4874686;29;20060;-62
2023/05/22 00:31:44;;;;;;;21.27;10.65;;;;;;;;;;4856029;29;20068;-62
2023/05/22 00:34:19;;;;;;;19.33;10.43;;;;;;;;;;4826977;29;20068;-62
2023/05/22 00:36:51;;;;;;;23.90;11.27;;;;;;;;;;4825842;29;20170;-62
2023/05/22 00:39:22;;;;;;;21.25;11.25;;;;;;;;;;4856433;29;20062;-63
2023/05/22 00:41:54;;;;;;;20.55;10.85;;;;;;;;;;4856238;29;20519;-64
2023/05/22 00:44:26;;;;;;;19.08;10.32;;;;;;;;;;4825880;29;20072;-62
2023/05/22 00:46:57;;;;;;;21.92;13.02;;;;;;;;;;4856018;29;20053;-65
2023/05/22 00:49:29;;;;;;;22.02;10.15;;;;;;;;;;4885678;29;20056;-62
2023/05/22 00:52:00;;;;;;;20.50;10.98;;;;;;;;;;4893050;29;20063;-62
2023/05/22 00:54:34;;;;;;;17.88;9.65;;;;;;;;;;4862815;29;20159;-61
2023/05/22 00:57:06;;;;;;;19.35;10.55;;;;;;;;;;4862223;29;20060;-63
2023/05/22 00:59:37;;;;;;;19.45;10.10;;;;;;;;;;4893287;29;20060;-63
2023/05/22 01:02:09;;;;;;;17.20;7.32;;;;;;;;;;4877797;29;20060;-62
2023/05/22 01:04:48;;;;;;;8.82;4.82;;;;;;;;;;4882731;29;20055;-63
2023/05/22 01:07:20;;;;;;;19.45;9.40;;;;;;;;;;4918518;29;20067;-62
2023/05/22 01:09:52;;;;;;;15.32;7.72;;;;;;;;;;4950436;29;20067;-62
2023/05/22 01:12:47;;;;;;;20.83;9.63;;;;;;;;;;4930575;29;20500;-63
2023/05/22 01:15:40;;;;;;;18.75;9.85;;;;;;;;;;4893929;29;20048;-65
2023/05/22 01:18:29;;;;;;;18.55;9.93;;;;;;;;;;4893179;29;20072;-63
2023/05/22 01:21:35;;;;;;;16.83;9.23;;;;;;;;;;4893109;29;20426;-63
2023/05/22 01:24:30;;;;;;;19.75;9.35;;;;;;;;;;4840494;29;20091;-65
2023/05/22 01:27:02;;;;;;;22.63;11.30;;;;;;;;;;4840721;29;20058;-64
2023/05/22 01:29:45;;;;;;;21.77;11.50;;;;;;;;;;4840927;29;20084;-65
2023/05/22 01:32:20;;;;;;;19.63;11.13;;;;;;;;;;4840804;29;20061;-66
2023/05/22 01:34:55;;;;;;;26.10;10.43;;;;;;;;;;4840613;29;20054;-64
2023/05/22 01:37:27;;;;;;;24.33;12.23;;;;;;;;;;4807195;29;20062;-64
2023/05/22 01:39:58;;;;;;;22.17;11.65;;;;;;;;;;4830130;29;20059;-63
2023/05/22 01:42:30;;;;;;;26.85;12.60;;;;;;;;;;4836929;29;20058;-62
2023/05/22 01:45:01;;;;;;;22.50;11.93;;;;;;;;;;4840467;29;20061;-62
2023/05/22 01:47:32;;;;;;;23.95;12.02;;;;;;;;;;4855677;29;20515;-62
2023/05/22 01:50:04;;;;;;;20.50;11.82;;;;;;;;;;4840278;29;20523;-63
2023/05/22 01:52:36;;;;;;;20.30;10.43;;;;;;;;;;4825001;29;20057;-65
2023/05/22 01:55:17;;;;;;;17.85;9.15;;;;;;;;;;4816905;29;20053;-62
2023/05/22 01:57:59;;;;;;;16.40;8.50;;;;;;;;;;4877006;29;20081;-62
2023/05/22 02:00:32;;;;;;;16.52;8.60;;;;;;;;;;4864726;29;20076;-63
2023/05/22 02:03:16;;;;;;;15.85;8.07;;;;;;;;;;4858344;29;20073;-63
2023/05/22 02:05:53;;;;;;;15.77;7.90;;;;;;;;;;4846930;29;20461;-64
2023/05/22 02:08:24;;;;;;;18.65;8.73;;;;;;;;;;4877289;29;20049;-63
2023/05/22 02:10:57;;;;;;;16.73;9.52;;;;;;;;;;4845873;29;20410;-64
2023/05/22 02:13:28;;;;;;;18.05;9.00;;;;;;;;;;4844763;29;20535;-65
2023/05/22 02:15:59;;;;;;;15.20;8.57;;;;;;;;;;4858287;29;20400;-64
2023/05/22 02:18:30;;;;;;;21.85;9.75;;;;;;;;;;4812211;29;20054;-64
2023/05/22 02:21:02;;;;;;;16.30;8.80;;;;;;;;;;4873202;29;20056;-63
2023/05/22 02:23:32;;;;;;;17.30;8.90;;;;;;;;;;4842543;29;20058;-63
2023/05/22 02:26:03;;;;;;;15.15;7.97;;;;;;;;;;4821535;29;20066;-63
2023/05/22 02:28:34;;;;;;;19.35;8.73;;;;;;;;;;4821671;29;20054;-64
2023/05/22 02:31:04;;;;;;;14.27;8.52;;;;;;;;;;4872916;29;20092;-63
2023/05/22 02:33:35;;;;;;;18.15;8.13;;;;;;;;;;4857790;29;20064;-63
2023/05/22 02:36:09;;;;;;;14.70;8.15;;;;;;;;;;4871920;29;20053;-63
2023/05/22 02:38:40;;;;;;;16.55;8.57;;;;;;;;;;4876575;29;20061;-65
2023/05/22 02:41:10;;;;;;;17.58;8.55;;;;;;;;;;4863858;29;20540;-64
2023/05/22 02:43:40;;;;;;;15.30;8.35;;;;;;;;;;4874073;29;20062;-63
2023/05/22 02:46:10;;;;;;;16.05;8.40;;;;;;;;;;4876113;29;20049;-64
2023/05/22 02:48:41;;;;;;;15.60;8.80;;;;;;;;;;4866447;29;20062;-64
2023/05/22 02:51:11;;;;;;;16.45;8.45;;;;;;;;;;4872953;29;20065;-64
2023/05/22 02:53:41;;;;;;;16.05;8.15;;;;;;;;;;4848018;29;20046;-64
2023/05/22 02:56:12;;;;;;;16.92;7.63;;;;;;;;;;4853556;29;20057;-64
2023/05/22 02:58:42;;;;;;;14.70;8.25;;;;;;;;;;4872534;29;20498;-63
2023/05/22 03:01:12;;;;;;;16.13;8.93;;;;;;;;;;4857580;29;20058;-63
2023/05/22 03:03:43;;;;;;;16.77;8.73;;;;;;;;;;4857332;29;20061;-63
2023/05/22 03:06:14;;;;;;;15.80;8.80;;;;;;;;;;4838607;29;20057;-64
2023/05/22 03:08:47;;;;;;;17.50;8.25;;;;;;;;;;4827168;29;20500;-62
2023/05/22 03:11:16;;;;;;;;;;;;;;;;;;4802464;29;20060;-63
2023/05/22 03:13:46;;;;;;;17.88;8.18;;;;;;;;;;4817183;29;19925;-63
2023/05/22 03:16:17;;;;;;;15.07;7.55;;;;;;;;;;4801985;29;20067;-65
2023/05/22 03:19:07;;;;;;;15.57;8.13;;;;;;;;;;4857111;29;20068;-63
2023/05/22 03:21:39;;;;;;;17.58;8.45;;;;;;;;;;4875597;29;20071;-63
2023/05/22 03:24:11;;;;;;;16.77;8.70;;;;;;;;;;4882589;29;20449;-63
2023/05/22 03:26:42;;;;;;;16.65;8.43;;;;;;;;;;4872051;29;20088;-63
2023/05/22 03:29:19;;;;;;;16.98;8.68;;;;;;;;;;4851310;29;20089;-63
2023/05/22 03:31:49;;;;;;;18.98;9.07;;;;;;;;;;4842097;29;20526;-63
2023/05/22 03:34:21;;;;;;;17.17;8.50;;;;;;;;;;4836060;29;20060;-64
2023/05/22 03:36:51;;;;;;;16.65;8.10;;;;;;;;;;4871908;29;20061;-62
2023/05/22 03:39:22;;;;;;;14.30;7.65;;;;;;;;;;4831459;29;20049;-63
2023/05/22 03:41:58;;;;;;;15.77;7.85;;;;;;;;;;4856524;29;20515;-63
2023/05/22 03:44:29;;;;;;;13.82;7.40;;;;;;;;;;4831010;29;20053;-62
2023/05/22 03:47:01;;;;;;;13.68;7.60;;;;;;;;;;4843553;29;20079;-62
2023/05/22 03:49:31;;;;;;;16.63;7.80;;;;;;;;;;4881090;29;20044;-62
2023/05/22 03:52:05;;;;;;;15.38;7.65;;;;;;;;;;4878781;29;20049;-63
2023/05/22 03:54:35;;;;;;;16.92;8.10;;;;;;;;;;4894393;29;20065;-62
2023/05/22 03:57:06;;;;;;;14.90;7.88;;;;;;;;;;4893841;29;20060;-62
2023/05/22 03:59:36;;;;;;;12.25;7.50;;;;;;;;;;4863740;29;20062;-64
2023/05/22 04:02:06;;;;;;;13.25;7.93;;;;;;;;;;4878622;29;20053;-63
2023/05/22 04:04:37;;;;;;;15.35;7.70;;;;;;;;;;4882408;29;20060;-66
2023/05/22 04:07:08;;;;;;;19.40;8.15;;;;;;;;;;4857922;29;20056;-63
2023/05/22 04:09:40;;;;;;;13.15;7.38;;;;;;;;;;4870320;29;20557;-65
2023/05/22 04:12:10;;;;;;;15.52;8.13;;;;;;;;;;4849457;29;20057;-64
2023/05/22 04:14:40;;;;;;;14.48;8.60;;;;;;;;;;4856756;29;20072;-63
2023/05/22 04:17:10;;;;;;;14.00;7.97;;;;;;;;;;4873362;29;20062;-63
2023/05/22 04:19:41;;;;;;;13.95;7.35;;;;;;;;;;4875133;29;20545;-63
2023/05/22 04:22:11;;;;;;;17.38;8.23;;;;;;;;;;4884440;29;20425;-62
2023/05/22 04:24:47;;;;;;;;;;;;;;;;;;4847500;29;20058;-63
2023/05/22 04:27:21;;;;;;;15.55;7.32;;;;;;;;;;4847915;29;19931;-63
2023/05/22 04:29:52;;;;;;;13.63;7.68;;;;;;;;;;4872093;29;20404;-63
2023/05/22 04:32:25;;;;;;;13.00;7.03;;;;;;;;;;4875042;29;20053;-63
2023/05/22 04:34:59;;;;;;;15.60;7.90;;;;;;;;;;4856289;29;20481;-63
2023/05/22 04:37:30;;;;;;;13.63;6.18;;;;;;;;;;4845638;29;20088;-63
2023/05/22 04:40:06;;;;;;;13.93;6.38;;;;;;;;;;4849231;29;20447;-63
2023/05/22 04:42:41;;;;;;;12.70;6.95;;;;;;;;;;4856226;29;20068;-63
2023/05/22 04:45:12;;;;;;;17.67;8.02;;;;;;;;;;4893688;29;20544;-63
2023/05/22 04:47:43;;;;;;;14.93;7.03;;;;;;;;;;4893263;29;20061;-63
2023/05/22 04:50:13;;;;;;;15.18;7.03;;;;;;;;;;4893716;29;20060;-64
2023/05/22 04:52:43;;;;;;;12.63;6.00;;;;;;;;;;4889843;29;20049;-63
2023/05/22 04:55:14;;;;;;;13.13;5.88;;;;;;;;;;4905914;29;20052;-66
2023/05/22 04:57:46;;;;;;;12.05;6.63;;;;;;;;;;4894891;29;20417;-63
2023/05/22 05:00:16;;;;;;;15.23;6.28;;;;;;;;;;4872423;29;20064;-65
2023/05/22 05:02:48;;;;;;;12.95;6.03;;;;;;;;;;4878172;29;20057;-63
2023/05/22 05:05:18;;;;;;;12.98;6.32;;;;;;;;;;4908655;29;20061;-63
2023/05/22 05:07:50;;;;;;;17.95;6.90;;;;;;;;;;4893299;29;20049;-65
2023/05/22 05:10:20;;;;;;;12.82;6.30;;;;;;;;;;4893351;29;21116;-62
2023/05/22 05:12:52;;;;;;;11.95;5.90;;;;;;;;;;4850650;29;20061;-62
2023/05/22 05:15:22;;;;;;;14.07;6.13;;;;;;;;;;4915675;29;20409;-63
2023/05/22 05:17:53;;;;;;;14.25;6.28;;;;;;;;;;4896302;29;20080;-65
2023/05/22 05:20:23;;;;;;;12.45;6.05;;;;;;;;;;4915615;29;20052;-63
2023/05/22 05:22:55;;;;;;;12.20;6.43;;;;;;;;;;4877298;29;20167;-63
2023/05/22 05:25:25;;;;;;;14.23;6.63;;;;;;;;;;4877814;29;20057;-64
2023/05/22 05:27:56;;;;;;;16.35;6.50;;;;;;;;;;4885926;29;20054;-63
2023/05/22 05:30:28;;;;;;;14.40;6.35;;;;;;;;;;4831723;29;20477;-62
2023/05/22 05:33:19;;;;;;;10.05;5.70;;;;;;;;;;4810610;29;20051;-64
2023/05/22 05:36:24;;;;;;;11.98;6.60;;;;;;;;;;4791011;29;20444;-63
2023/05/22 05:38:57;;;;;;;13.00;6.18;;;;;;;;;;4753811;30;20517;-62
2023/05/22 05:41:28;;;;;;;12.35;6.45;;;;;;;;;;4768161;30;20788;-63
2023/05/22 05:44:03;;;;;;;13.25;5.97;;;;;;;;;;4768085;30;20059;-64
2023/05/22 05:46:34;;;;;;;13.65;6.47;;;;;;;;;;4783544;29;20051;-63
2023/05/22 05:49:09;;;;;;;12.60;6.40;;;;;;;;;;4706246;30;20065;-62
2023/05/22 05:51:41;;;;;;;13.27;5.90;;;;;;;;;;4753024;30;20532;-64
2023/05/22 05:54:12;;;;;;;11.88;5.78;;;;;;;;;;4785846;29;20091;-63
2023/05/22 05:56:42;;;;;;;12.27;4.95;;;;;;;;;;4768538;30;20055;-62
2023/05/22 05:59:13;;;;;;;12.93;5.15;;;;;;;;;;4767598;30;20063;-62
2023/05/22 06:02:06;;;;;;;10.75;5.82;;;;;;;;;;4789929;29;20066;-62
2023/05/22 06:04:38;;;;;;;9.85;5.32;;;;;;;;;;4819980;29;20058;-62
2023/05/22 06:07:11;;;;;;;15.00;5.88;;;;;;;;;;4797242;29;20536;-63
2023/05/22 06:09:47;;;;;;;10.57;5.70;;;;;;;;;;4809339;29;20066;-65
2023/05/22 06:12:30;;;;;;;11.02;5.45;;;;;;;;;;4807408;29;20082;-63
2023/05/22 06:15:01;;;;;;;15.20;6.20;;;;;;;;;;4806457;29;20130;-63
2023/05/22 06:17:31;;;;;;;9.35;5.60;;;;;;;;;;4838869;29;20062;-62
2023/05/22 06:20:04;;;;;;;11.63;5.68;;;;;;;;;;4839760;29;20085;-62
2023/05/22 06:22:35;;;;;;;11.55;6.28;;;;;;;;;;4824322;29;20113;-63
2023/05/22 06:25:06;;;;;;;12.95;6.03;;;;;;;;;;4824105;29;20586;-62
2023/05/22 06:27:36;;;;;;;11.88;5.57;;;;;;;;;;4821424;29;20107;-62
2023/05/22 06:30:09;;;;;;;10.45;5.85;;;;;;;;;;4805281;29;20062;-63
2023/05/22 06:32:40;;;;;;;12.75;5.78;;;;;;;;;;4806843;29;20504;-62
2023/05/22 06:35:11;;;;;;;16.42;5.72;;;;;;;;;;4788817;29;20066;-65
2023/05/22 06:37:41;;;;;;;11.25;5.15;;;;;;;;;;4803155;29;20078;-62
2023/05/22 06:40:12;;;;;;;10.43;5.45;;;;;;;;;;4787715;29;20055;-63
2023/05/22 06:42:49;;;;;;;9.93;5.50;;;;;;;;;;4813143;29;20055;-62
2023/05/22 06:45:46;;;;;;;11.27;5.47;;;;;;;;;;4754720;30;20056;-62
2023/05/22 06:48:39;;;;;;;9.80;5.43;;;;;;;;;;4803046;29;20055;-64
2023/05/22 06:51:15;;;;;;;11.32;6.25;;;;;;;;;;4821127;29;20058;-64
2023/05/22 06:53:50;;;;;;;12.50;5.97;;;;;;;;;;4835452;29;20415;-63
2023/05/22 06:56:26;;;;;;;10.52;5.20;;;;;;;;;;4770707;30;20051;-63
2023/05/22 06:59:05;;;;;;;9.68;5.50;;;;;;;;;;4749127;30;20056;-63
2023/05/22 07:01:58;;;;;;;9.75;5.45;;;;;;;;;;4731668;30;20064;-63
2023/05/22 07:04:54;;;;;;;8.82;5.45;;;;;;;;;;4726260;30;20057;-62
2023/05/22 07:07:38;;;;;;;8.98;5.35;;;;;;;;;;4731521;30;20534;-63
2023/05/22 07:10:09;;;;;;;12.18;4.85;;;;;;;;;;4745325;30;20079;-63
2023/05/22 07:12:53;;;;;;;9.60;4.97;;;;;;;;;;4716881;30;20802;-63
2023/05/22 07:15:25;;;;;;;9.05;5.00;;;;;;;;;;4705348;30;20060;-64
2023/05/22 07:17:58;;;;;;;8.63;5.07;;;;;;;;;;4721974;30;20064;-63
2023/05/22 07:20:29;;;;;;;9.75;4.97;;;;;;;;;;4748692;30;20055;-62
2023/05/22 07:23:10;;;;;;;10.85;5.30;;;;;;;;;;4755243;30;20049;-62
2023/05/22 07:25:42;;;;;;;14.15;5.78;;;;;;;;;;4747582;30;20055;-63
2023/05/22 07:28:14;;;;;;;10.93;5.40;;;;;;;;;;4780431;29;20060;-62
2023/05/22 07:30:54;;;;;;;11.70;5.20;;;;;;;;;;4743021;30;20403;-64
2023/05/22 07:33:27;;;;;;;9.77;5.18;;;;;;;;;;4788236;29;20500;-62
2023/05/22 07:35:58;;;;;;;11.85;5.30;;;;;;;;;;4817062;29;20547;-62
2023/05/22 07:38:30;;;;;;;10.10;5.45;;;;;;;;;;4820451;29;20104;-62
2023/05/22 07:41:03;;;;;;;12.10;5.35;;;;;;;;;;4785834;29;20054;-63
2023/05/22 07:43:34;;;;;;;10.57;5.57;;;;;;;;;;4838539;29;20108;-63
2023/05/22 07:46:06;;;;;;;12.65;5.75;;;;;;;;;;4838378;29;20201;-63
2023/05/22 07:48:50;;;;;;;10.70;5.80;;;;;;;;;;4803762;29;20086;-66
2023/05/22 07:51:20;;;;;;;10.75;5.30;;;;;;;;;;4769712;29;20049;-62
2023/05/22 07:53:53;;;;;;;10.10;6.03;;;;;;;;;;4783787;30;20428;-62
2023/05/22 07:56:24;;;;;;;14.57;5.97;;;;;;;;;;4754320;30;20067;-63
2023/05/22 07:58:56;;;;;;;10.65;6.15;;;;;;;;;;4801757;29;20063;-66
2023/05/22 08:01:26;;;;;;;13.35;7.05;;;;;;;;;;4801971;29;20063;-63
2023/05/22 08:03:56;;;;;;;19.88;7.03;;;;;;;;;;4818343;29;20528;-63
2023/05/22 08:06:28;;;;;;;11.43;6.50;;;;;;;;;;4802602;29;20641;-63
2023/05/22 08:08:59;;;;;;;13.70;6.47;;;;;;;;;;4838185;29;20061;-63
2023/05/22 08:11:29;;;;;;;14.35;6.72;;;;;;;;;;4826624;29;20054;-62
2023/05/22 08:13:59;;;;;;;12.30;6.82;;;;;;;;;;4789826;29;20084;-63
2023/05/22 08:16:30;;;;;;;11.88;6.80;;;;;;;;;;4831426;29;20074;-62
2023/05/22 08:19:01;;;;;;;12.25;6.85;;;;;;;;;;4796960;29;20653;-63
2023/05/22 08:21:33;;;;;;;13.35;6.88;;;;;;;;;;4842617;29;20066;-63
2023/05/22 08:24:03;;;;;;;16.92;7.72;;;;;;;;;;4879451;29;20052;-62
2023/05/22 08:26:33;;;;;;;18.52;8.18;;;;;;;;;;4894268;29;20719;-63
2023/05/22 08:29:04;;;;;;;16.15;7.10;;;;;;;;;;4881638;29;20044;-63
2023/05/22 08:31:34;;;;;;;14.20;7.93;;;;;;;;;;4913254;28;20059;-63
2023/05/22 08:34:06;;;;;;;16.38;7.68;;;;;;;;;;4876201;28;20147;-62
2023/05/22 08:36:36;;;;;;;15.88;8.18;;;;;;;;;;4980804;28;20066;-64
2023/05/22 08:39:07;;;;;;;12.32;7.10;;;;;;;;;;4991528;28;20050;-62
2023/05/22 08:41:37;;;;;;;13.35;7.60;;;;;;;;;;4973465;28;20522;-63
2023/05/22 08:44:09;;;;;;;18.52;8.05;;;;;;;;;;4991842;28;20050;-63
2023/05/22 08:46:46;;;;;;;16.13;8.25;;;;;;;;;;4937497;28;20047;-64
2023/05/22 08:49:19;;;;;;;14.32;8.10;;;;;;;;;;4969721;28;20063;-63
2023/05/22 08:52:02;;;;;;;16.45;8.20;;;;;;;;;;4969767;28;20055;-63
2023/05/22 08:54:35;;;;;;;16.40;8.73;;;;;;;;;;4970268;28;20054;-63
2023/05/22 08:57:06;;;;;;;18.13;7.45;;;;;;;;;;4939310;28;20067;-63
2023/05/22 08:59:39;;;;;;;19.73;8.45;;;;;;;;;;4970134;28;20055;-63
2023/05/22 09:02:13;;;;;;;19.13;7.97;;;;;;;;;;4950381;28;20051;-62
2023/05/22 09:04:43;;;;;;;15.88;7.43;;;;;;;;;;4918651;29;20070;-66
2023/05/22 09:07:13;;;;;;;15.18;8.10;;;;;;;;;;4950716;29;20059;-63
2023/05/22 09:09:44;;;;;;;16.58;7.72;;;;;;;;;;4918589;29;20059;-63
2023/05/22 09:12:14;;;;;;;15.90;7.75;;;;;;;;;;4950421;29;20066;-64
2023/05/22 09:14:45;;;;;;;16.42;7.43;;;;;;;;;;4950843;29;20063;-63
2023/05/22 09:17:16;;;;;;;15.15;7.82;;;;;;;;;;4950263;28;20059;-63
2023/05/22 09:19:46;;;;;;;14.43;7.60;;;;;;;;;;4950453;28;20488;-63
2023/05/22 09:22:18;;;;;;;13.90;7.43;;;;;;;;;;4887446;28;20054;-63
2023/05/22 09:24:52;;;;;;;16.00;7.18;;;;;;;;;;4962156;28;20050;-64
2023/05/22 09:27:23;;;;;;;12.13;6.97;;;;;;;;;;4989243;28;20061;-63
2023/05/22 09:29:56;;;;;;;14.27;7.55;;;;;;;;;;4988939;28;20087;-64
2023/05/22 09:32:31;;;;;;;15.85;7.90;;;;;;;;;;4926405;28;20069;-63
2023/05/22 09:35:05;;;;;;;13.30;7.68;;;;;;;;;;4940908;28;20061;-65
2023/05/22 09:37:36;;;;;;;13.27;7.15;;;;;;;;;;4989272;28;20062;-64
2023/05/22 09:40:09;;;;;;;15.68;7.45;;;;;;;;;;4988819;28;20414;-63
2023/05/22 09:42:44;;;;;;;14.02;7.43;;;;;;;;;;4940754;28;20066;-63
2023/05/22 09:45:22;;;;;;;12.68;6.60;;;;;;;;;;4959606;28;20541;-63
2023/05/22 09:47:53;;;;;;;12.50;7.55;;;;;;;;;;4944101;28;20058;-63
2023/05/22 09:50:23;;;;;;;12.27;6.95;;;;;;;;;;4976010;28;20077;-64
2023/05/22 09:52:54;;;;;;;12.57;6.80;;;;;;;;;;4992359;28;20050;-64
2023/05/22 09:55:27;;;;;;;13.63;7.03;;;;;;;;;;5007674;28;20073;-63
2023/05/22 09:58:02;;;;;;;11.50;6.95;;;;;;;;;;4963325;28;20050;-64
2023/05/22 10:00:35;;;;;;;14.02;7.50;;;;;;;;;;5014298;28;20045;-66
2023/05/22 10:03:14;;;;;;;14.38;7.07;;;;;;;;;;4996193;28;20076;-62
2023/05/22 10:05:51;;;;;;;11.80;6.82;;;;;;;;;;5013819;28;20045;-62
2023/05/22 10:08:25;;;;;;;12.32;6.65;;;;;;;;;;4972175;28;20050;-62
2023/05/22 10:10:57;;;;;;;13.40;7.07;;;;;;;;;;4971893;28;20051;-61
2023/05/22 10:13:29;;;;;;;16.55;6.40;;;;;;;;;;4972247;28;20062;-62
2023/05/22 10:15:59;;;;;;;12.63;7.15;;;;;;;;;;4956377;28;20471;-62
2023/05/22 10:18:33;;;;;;;12.43;6.30;;;;;;;;;;4956729;28;20069;-62
2023/05/22 10:21:03;;;;;;;11.65;6.63;;;;;;;;;;4952241;29;20156;-61
2023/05/22 10:23:35;;;;;;;12.02;7.07;;;;;;;;;;4952818;29;20393;-62
2023/05/22 10:26:07;;;;;;;11.52;6.55;;;;;;;;;;4905212;29;20089;-61
2023/05/22 10:28:42;;;;;;;12.75;6.90;;;;;;;;;;4936293;29;20057;-61
2023/05/22 10:31:48;;;;;;;12.77;6.50;;;;;;;;;;4935996;29;20047;-62
2023/05/22 10:34:39;;;;;;;12.52;7.00;;;;;;;;;;4894783;29;20057;-61
2023/05/22 10:37:42;;;;;;;14.20;7.15;;;;;;;;;;4881465;29;20053;-61
2023/05/22 10:40:29;;;;;;;14.43;7.05;;;;;;;;;;4895176;29;20437;-62
2023/05/22 10:43:00;;;;;;;13.93;7.20;;;;;;;;;;4894776;29;20598;-61
2023/05/22 10:45:35;;;;;;;15.32;7.68;;;;;;;;;;4885710;29;20048;-61
2023/05/22 10:48:07;;;;;;;14.82;8.38;;;;;;;;;;4882630;29;20055;-62
2023/05/22 10:50:39;;;;;;;15.13;6.47;;;;;;;;;;4833339;29;20068;-61
2023/05/22 10:53:26;;;;;;;14.55;7.75;;;;;;;;;;4865188;29;20075;-62
2023/05/22 10:56:01;;;;;;;12.90;6.88;;;;;;;;;;4882476;29;20056;-61
2023/05/22 10:58:37;;;;;;;13.48;7.40;;;;;;;;;;4913692;29;20528;-62
2023/05/22 11:01:16;;;;;;;11.60;6.68;;;;;;;;;;4914080;29;20068;-62
2023/05/22 11:04:03;;;;;;;17.13;7.22;;;;;;;;;;4913580;29;20040;-62
2023/05/22 11:06:44;;;;;;;16.05;8.80;;;;;;;;;;4913612;29;20063;-62
2023/05/22 11:09:28;;;;;;;16.67;9.60;;;;;;;;;;4882154;29;20060;-62
2023/05/22 11:12:27;;;;;;;18.52;9.50;;;;;;;;;;4946630;28;20054;-62
2023/05/22 11:15:09;;;;;;;16.50;8.52;;;;;;;;;;4942284;29;20047;-62
2023/05/22 11:17:41;;;;;;;18.90;9.07;;;;;;;;;;4914065;29;20043;-62
2023/05/22 11:20:17;;;;;;;15.20;9.00;;;;;;;;;;4941504;29;20063;-62
2023/05/22 11:23:05;;;;;;;14.57;7.47;;;;;;;;;;4865284;29;20163;-62
2023/05/22 11:25:39;;;;;;;16.65;7.65;;;;;;;;;;4874460;29;20048;-62
2023/05/22 11:28:11;;;;;;;14.38;7.60;;;;;;;;;;4887053;29;20048;-61
2023/05/22 11:30:41;;;;;;;16.65;7.90;;;;;;;;;;4903902;29;20076;-65
2023/05/22 11:33:14;;;;;;;13.77;7.88;;;;;;;;;;4848308;29;20060;-62
2023/05/22 11:35:47;;;;;;;11.90;7.28;;;;;;;;;;4894119;29;20060;-63
2023/05/22 11:38:18;;;;;;;16.38;8.15;;;;;;;;;;4883686;29;20060;-61
2023/05/22 11:40:51;;;;;;;16.95;8.73;;;;;;;;;;4917104;29;20388;-62
2023/05/22 11:43:31;;;;;;;13.60;7.22;;;;;;;;;;4915778;29;20524;-62
2023/05/22 11:46:09;;;;;;;15.80;8.18;;;;;;;;;;4885020;29;20059;-61
2023/05/22 11:48:41;;;;;;;15.98;7.82;;;;;;;;;;4900021;29;20160;-63
2023/05/22 11:51:12;;;;;;;14.15;7.72;;;;;;;;;;4884563;29;20523;-61
2023/05/22 11:53:42;;;;;;;15.77;8.85;;;;;;;;;;4967442;28;20063;-62
2023/05/22 11:56:13;;;;;;;15.70;8.75;;;;;;;;;;4938239;28;20062;-62
2023/05/22 11:58:43;;;;;;;15.52;8.07;;;;;;;;;;4970245;28;20051;-62
2023/05/22 12:01:13;;;;;;;18.95;7.78;;;;;;;;;;4987831;28;20062;-62
2023/05/22 12:03:44;;;;;;;13.20;8.23;;;;;;;;;;4991860;28;20038;-63
2023/05/22 12:06:16;;;;;;;16.85;9.13;;;;;;;;;;4989709;28;20050;-62
2023/05/22 12:08:46;;;;;;;13.57;7.18;;;;;;;;;;4998197;28;20056;-63
2023/05/22 12:11:16;;;;;;;14.23;7.10;;;;;;;;;;5013786;28;20053;-63
2023/05/22 12:13:50;;;;;;;11.20;6.45;;;;;;;;;;5018078;28;20437;-62
2023/05/22 12:16:21;;;;;;;11.23;5.75;;;;;;;;;;4944596;28;20046;-62
2023/05/22 12:18:52;;;;;;;8.68;4.45;;;;;;;;;;4950447;29;20531;-62
2023/05/22 12:21:23;;;;;;;10.85;4.82;;;;;;;;;;4950483;29;20059;-62
2023/05/22 12:23:55;;;;;;;10.95;4.65;;;;;;;;;;4950340;29;20055;-62
2023/05/22 12:26:25;;;;;;;8.23;4.10;;;;;;;;;;4950497;29;20055;-63
2023/05/22 12:28:59;;;;;;;8.27;4.22;;;;;;;;;;4950878;29;20062;-62
2023/05/22 12:31:37;;;;;;;9.00;3.95;;;;;;;;;;4950429;29;20052;-63
2023/05/22 12:34:07;;;;;;;12.23;5.90;;;;;;;;;;4950437;29;20479;-63
2023/05/22 12:36:42;;;;;;;6.78;3.92;;;;;;;;;;4950679;29;20432;-62
2023/05/22 12:39:16;;;;;;;10.70;4.93;;;;;;;;;;4950328;29;20059;-64
2023/05/22 12:41:46;;;;;;;9.27;4.47;;;;;;;;;;4957228;28;20439;-62
2023/05/22 12:44:17;;;;;;;8.18;4.03;;;;;;;;;;4916614;29;20048;-63
2023/05/22 12:46:47;;;;;;;9.40;4.00;;;;;;;;;;4911642;29;20052;-62
2023/05/22 12:49:18;;;;;;;7.28;3.65;;;;;;;;;;4911655;29;20147;-64
2023/05/22 12:51:48;;;;;;;10.57;3.78;;;;;;;;;;4912192;29;20142;-61
2023/05/22 12:54:18;;;;;;;5.93;3.30;;;;;;;;;;4919461;29;20078;-62
2023/05/22 12:56:48;;;;;;;8.25;4.45;;;;;;;;;;4935758;29;20055;-61
2023/05/22 12:59:18;;;;;;;7.30;3.05;;;;;;;;;;4960346;28;20046;-61
2023/05/22 13:01:48;;;;;;;6.13;3.20;;;;;;;;;;4959888;28;20063;-61
2023/05/22 13:04:19;;;;;;;6.07;3.28;;;;;;;;;;4959802;28;20090;-62
2023/05/22 13:06:49;;;;;;;9.15;3.70;;;;;;;;;;4961452;28;20054;-61
2023/05/22 13:09:20;;;;;;;10.77;4.35;;;;;;;;;;4954551;28;20051;-62
2023/05/22 13:11:50;;;;;;;10.40;3.78;;;;;;;;;;4958968;28;20062;-62
2023/05/22 13:14:21;;;;;;;16.08;5.60;;;;;;;;;;4909507;29;20047;-63
2023/05/22 13:16:51;;;;;;;10.52;4.70;;;;;;;;;;4917318;29;20043;-61
2023/05/22 13:19:22;;;;;;;7.40;4.18;;;;;;;;;;4922169;29;20071;-61
2023/05/22 13:21:52;;;;;;;13.05;4.82;;;;;;;;;;4933677;29;20412;-61
2023/05/22 13:24:24;;;;;;;11.95;5.45;;;;;;;;;;4906054;29;20439;-61
2023/05/22 13:26:54;;;;;;;11.05;4.43;;;;;;;;;;4922517;29;20059;-61
2023/05/22 13:29:24;;;;;;;12.90;6.63;;;;;;;;;;4953527;29;20055;-62
2023/05/22 13:31:55;;;;;;;11.98;5.55;;;;;;;;;;4957293;28;20047;-61
2023/05/22 13:34:25;;;;;;;9.68;5.03;;;;;;;;;;4959836;28;20055;-62
2023/05/22 13:36:55;;;;;;;10.15;4.60;;;;;;;;;;4953415;29;20060;-61
2023/05/22 13:39:26;;;;;;;10.02;5.78;;;;;;;;;;4937257;28;20935;-62
2023/05/22 13:41:56;;;;;;;13.73;5.45;;;;;;;;;;4968219;28;20059;-62
2023/05/22 13:44:26;;;;;;;7.82;4.05;;;;;;;;;;4943014;28;20048;-62
2023/05/22 13:46:58;;;;;;;11.13;4.55;;;;;;;;;;4935322;29;20067;-62
2023/05/22 13:49:29;;;;;;;12.23;4.88;;;;;;;;;;4963127;28;20066;-62
2023/05/22 13:51:59;;;;;;;13.20;4.97;;;;;;;;;;4969485;28;20055;-64
2023/05/22 13:54:29;;;;;;;10.55;4.72;;;;;;;;;;4971539;28;20054;-63
2023/05/22 13:57:01;;;;;;;7.53;4.53;;;;;;;;;;4976711;28;20578;-64
2023/05/22 13:59:32;;;;;;;10.30;5.20;;;;;;;;;;4962671;28;20051;-62
2023/05/22 14:02:02;;;;;;;10.25;4.25;;;;;;;;;;4894871;28;20141;-62
2023/05/22 14:04:32;;;;;;;9.43;4.30;;;;;;;;;;4972067;28;20158;-63
2023/05/22 14:07:03;;;;;;;6.55;3.25;;;;;;;;;;4943999;28;20058;-64
2023/05/22 14:09:33;;;;;;;6.43;3.10;;;;;;;;;;4969141;28;20145;-63
2023/05/22 14:12:04;;;;;;;8.05;3.63;;;;;;;;;;4967679;28;20055;-63
2023/05/22 14:14:34;;;;;;;8.88;3.10;;;;;;;;;;4936321;29;20047;-63
2023/05/22 14:17:07;;;;;;;6.93;2.58;;;;;;;;;;4912433;28;20054;-63
2023/05/22 14:19:38;;;;;;;6.93;3.20;;;;;;;;;;4952611;29;20063;-63
2023/05/22 14:22:09;;;;;;;7.80;4.07;;;;;;;;;;4909065;28;20193;-62
2023/05/22 14:24:39;;;;;;;6.15;3.15;;;;;;;;;;4997587;28;20042;-63
2023/05/22 14:27:09;;;;;;;7.60;3.67;;;;;;;;;;4997816;28;20438;-63
2023/05/22 14:29:40;;;;;;;15.63;3.78;;;;;;;;;;4985850;28;20057;-63
2023/05/22 14:32:10;;;;;;;11.82;3.38;;;;;;;;;;4991274;28;20402;-62
2023/05/22 14:34:40;;;;;;;4.57;2.53;;;;;;;;;;4974288;28;20069;-62
2023/05/22 14:37:10;;;;;;;4.20;1.67;;;;;;;;;;4991213;28;20443;-63
2023/05/22 14:39:40;;;;;;;5.03;1.45;;;;;;;;;;4991073;28;20062;-63
2023/05/22 14:42:11;;;;;;;8.10;1.80;;;;;;;;;;4958645;28;20058;-64
2023/05/22 14:44:41;;;;;;;3.13;1.60;;;;;;;;;;4958233;28;20534;-62
2023/05/22 14:47:11;;;;;;;4.03;1.55;;;;;;;;;;5002183;28;20081;-64
2023/05/22 14:49:42;;;;;;;3.10;1.50;;;;;;;;;;4946821;28;20042;-63
2023/05/22 14:52:12;;;;;;;3.55;1.85;;;;;;;;;;5012705;28;20486;-63
2023/05/22 14:54:42;;;;;;;5.30;1.73;;;;;;;;;;5012987;28;20045;-64
2023/05/22 14:57:13;;;;;;;5.22;1.80;;;;;;;;;;4920134;29;20043;-63
2023/05/22 14:59:43;;;;;;;2.95;1.40;;;;;;;;;;4933395;28;20047;-66
2023/05/22 15:02:13;;;;;;;3.58;1.23;;;;;;;;;;4970196;28;20050;-66
2023/05/22 15:04:45;;;;;;;6.88;1.88;;;;;;;;;;4949212;28;20483;-64
2023/05/22 15:07:15;;;;;;;3.63;1.80;;;;;;;;;;4971115;28;20051;-63